Terminal Aerodrome Forecast
Issued by NWS

Home | Current Version | Previous Version | Text Only | Print | Product List | Glossary On
Versions: 1 2 3 4 5 6 7 8 9 10 11 12 13 14 15 16 17 18 19 20 21 22 23 24 25 26 27 28 29 30 31 32 33 34 35 36
505
FTUS42 KGSP 280729 AAA
TAFHKY
TAF AMD
KHKY 280729Z 2807/2906 VRB02KT 5SM BR SCT001 BKN110
      TEMPO 2807/2811 1SM BR BKN001 OVC110
     FM281400 24006KT P6SM SCT060 BKN100 PROB30 2816/2818 4SM -TSRA
      OVC040CB
     FM281800 25010KT P6SM BKN060 PROB30 2818/2824 4SM -TSRA
      OVC040CB
     FM290100 24003KT P6SM BKN250=

USA.gov is the U.S. government's official web portal to all federal, state and local government web resources and services.